Time;durP1;ratioP1;P1;durP2;ratioP2;P2;SDS_P1;SDS_P2;PMS_P1;PMS_P2;Temp;Humidity;BMP_temperature;BMP_pressure;BME280_temperature;BME280_humidity;BME280_pressure;Samples;Min_cycle;Max_cycle;Signal;HPM_P1;HPM_P2
2022/05/20 00:00:14;;;;;;;10.63;5.43;;;15.40;99.90;;;;;;5018995;28;20053;-84
2022/05/20 00:02:46;;;;;;;7.55;5.72;;;15.30;99.90;;;;;;5035269;28;20037;-84
2022/05/20 00:05:12;;;;;;;7.63;5.50;;;15.20;99.90;;;;;;5018606;28;20129;-84
2022/05/20 00:07:39;;;;;;;13.27;5.97;;;15.10;99.90;;;;;;5018424;28;20061;-84
2022/05/20 00:10:06;;;;;;;13.88;6.80;;;15.20;99.90;;;;;;5035572;28;20068;-84
2022/05/20 00:12:31;;;;;;;9.20;6.25;;;15.20;99.90;;;;;;5018587;28;20515;-84
2022/05/20 00:14:57;;;;;;;10.68;6.35;;;15.20;99.90;;;;;;5034978;28;20134;-84
2022/05/20 00:17:23;;;;;;;13.90;6.13;;;15.10;99.90;;;;;;5034209;28;20029;-84
2022/05/20 00:19:48;;;;;;;11.73;6.90;;;15.10;99.90;;;;;;5018357;28;20030;-84
2022/05/20 00:22:14;;;;;;;12.73;6.25;;;15.00;99.90;;;;;;5034584;28;20034;-84
2022/05/20 00:25:45;;;;;;;9.88;6.15;;;15.00;99.90;;;;;;5018665;28;20121;-85
2022/05/20 00:27:25;;;;;;;9.32;6.72;;;15.00;99.90;;;;;;5034806;28;20044;-84
2022/05/20 00:29:51;;;;;;;8.45;5.78;;;15.00;99.90;;;;;;5035030;28;20425;-84
2022/05/20 00:32:17;;;;;;;10.00;6.63;;;14.90;99.90;;;;;;5034904;28;20038;-84
2022/05/20 00:34:43;;;;;;;10.57;6.60;;;14.80;99.90;;;;;;5018391;28;20087;-84
2022/05/20 00:37:08;;;;;;;12.63;6.38;;;14.80;99.90;;;;;;5018227;28;20040;-84
2022/05/20 00:39:34;;;;;;;9.98;6.78;;;14.80;99.90;;;;;;5036527;28;20052;-84
2022/05/20 00:42:09;;;;;;;12.23;6.65;;;14.80;99.90;;;;;;5035310;28;20029;-84
2022/05/20 00:44:35;;;;;;;15.02;7.93;;;14.80;99.90;;;;;;5033927;28;20128;-84
2022/05/20 00:47:00;;;;;;;11.38;7.10;;;14.70;99.90;;;;;;5033827;28;20124;-85
2022/05/20 00:49:28;;;;;;;11.57;7.22;;;14.60;99.90;;;;;;5017117;28;20069;-84
2022/05/20 00:51:54;;;;;;;12.20;7.53;;;14.60;99.90;;;;;;5034098;28;20037;-84
2022/05/20 00:54:24;;;;;;;10.27;7.53;;;14.60;99.90;;;;;;5034465;28;20052;-83
2022/05/20 00:57:07;;;;;;;14.33;8.27;;;14.60;99.90;;;;;;5017950;28;20052;-84
2022/05/20 00:59:36;;;;;;;12.52;9.00;;;14.70;99.90;;;;;;5034468;28;20083;-84
2022/05/20 01:02:11;;;;;;;18.20;9.45;;;14.60;99.90;;;;;;5034346;28;20030;-85
2022/05/20 01:04:37;;;;;;;10.50;7.45;;;14.70;99.90;;;;;;5035318;28;20065;-84
2022/05/20 01:07:05;;;;;;;13.95;8.13;;;14.70;99.90;;;;;;5017396;28;20037;-84
2022/05/20 01:09:31;;;;;;;13.68;8.60;;;14.70;99.90;;;;;;5034080;28;20033;-84
2022/05/20 01:11:57;;;;;;;19.23;9.02;;;14.70;99.90;;;;;;5017764;28;20056;-84
2022/05/20 01:14:25;;;;;;;16.20;9.68;;;14.70;99.90;;;;;;5033732;28;20052;-84
2022/05/20 01:16:51;;;;;;;18.48;9.32;;;14.80;99.90;;;;;;5016913;28;20033;-84
2022/05/20 01:19:39;;;;;;;19.85;9.98;;;14.80;99.90;;;;;;5017303;28;20030;-84
2022/05/20 01:22:06;;;;;;;13.73;10.30;;;14.80;99.90;;;;;;5017502;28;20033;-84
2022/05/20 01:24:33;;;;;;;14.65;9.88;;;14.80;99.90;;;;;;5017204;28;20029;-84
2022/05/20 01:26:59;;;;;;;15.70;10.77;;;14.90;99.90;;;;;;5033377;28;20108;-84
2022/05/20 01:29:26;;;;;;;16.58;10.57;;;14.90;99.90;;;;;;5017283;28;20029;-84
2022/05/20 01:31:52;;;;;;;12.35;10.48;;;15.00;99.90;;;;;;5035149;28;20490;-84
2022/05/20 01:34:21;;;;;;;15.70;10.32;;;15.00;99.90;;;;;;5017231;28;20084;-84
2022/05/20 01:36:47;;;;;;;14.93;9.88;;;15.10;99.90;;;;;;5017166;28;20025;-84
2022/05/20 01:39:12;;;;;;;17.13;9.45;;;15.20;99.90;;;;;;5017116;28;20025;-84
2022/05/20 01:41:48;;;;;;;13.68;9.23;;;15.30;99.90;;;;;;5016995;28;20079;-84
2022/05/20 01:44:36;;;;;;;18.17;9.68;;;15.40;99.90;;;;;;5017035;28;20068;-84
2022/05/20 01:47:16;;;;;;;15.25;9.60;;;15.40;99.90;;;;;;5033208;28;20128;-84
2022/05/20 01:49:51;;;;;;;11.88;9.23;;;15.40;99.90;;;;;;5033673;28;20040;-84
2022/05/20 01:52:30;;;;;;;15.35;8.90;;;15.40;99.90;;;;;;5033761;28;20481;-84
2022/05/20 01:55:10;;;;;;;11.52;9.13;;;15.40;99.90;;;;;;5017371;28;20484;-85
2022/05/20 01:57:51;;;;;;;14.10;8.68;;;15.50;99.90;;;;;;5033450;28;20029;-84
2022/05/20 02:00:25;;;;;;;14.88;8.48;;;15.50;99.90;;;;;;5033304;28;20087;-84
2022/05/20 02:03:31;;;;;;;14.13;8.63;;;15.50;99.90;;;;;;5033432;28;20033;-84
2022/05/20 02:06:09;;;;;;;13.30;10.10;;;15.50;99.90;;;;;;5016719;28;20037;-85
2022/05/20 02:08:46;;;;;;;12.95;9.52;;;15.50;99.90;;;;;;5034124;28;20029;-84
2022/05/20 02:11:25;;;;;;;16.05;8.73;;;15.50;99.90;;;;;;5016342;28;20120;-84
2022/05/20 02:14:20;;;;;;;11.07;8.30;;;15.40;99.90;;;;;;5016420;28;20037;-84
2022/05/20 02:16:54;;;;;;;12.05;7.93;;;15.30;99.90;;;;;;5010472;28;20116;-84
2022/05/20 02:19:28;;;;;;;12.40;8.70;;;15.30;99.90;;;;;;5016034;28;20038;-84
2022/05/20 02:21:58;;;;;;;15.48;9.20;;;15.40;99.90;;;;;;5015633;28;20388;-84
2022/05/20 02:24:28;;;;;;;13.73;8.20;;;15.40;99.90;;;;;;5016097;28;20087;-84
2022/05/20 02:26:59;;;;;;;12.23;7.90;;;15.40;99.90;;;;;;5015809;28;20485;-84
2022/05/20 02:29:31;;;;;;;13.60;9.07;;;15.30;99.90;;;;;;5015761;28;20037;-84
2022/05/20 02:32:07;;;;;;;14.10;9.32;;;15.20;99.90;;;;;;5015081;28;20037;-84
2022/05/20 02:34:34;;;;;;;14.35;9.38;;;15.20;99.90;;;;;;5032163;28;20041;-84
2022/05/20 02:37:33;;;;;;;18.40;10.02;;;15.20;99.90;;;;;;5015549;28;20025;-84
2022/05/20 02:40:01;;;;;;;11.52;9.15;;;15.10;99.90;;;;;;5015782;28;20033;-84
2022/05/20 02:42:28;;;;;;;11.73;9.27;;;15.20;99.90;;;;;;5015741;28;20033;-84
2022/05/20 02:44:58;;;;;;;12.30;8.30;;;15.20;99.90;;;;;;5015696;28;20030;-84
2022/05/20 02:47:25;;;;;;;13.98;9.15;;;15.10;99.90;;;;;;5015804;28;20037;-84
2022/05/20 02:49:50;;;;;;;18.33;9.68;;;15.10;99.90;;;;;;5032145;28;20500;-85
2022/05/20 02:52:16;;;;;;;15.45;9.50;;;15.00;99.90;;;;;;5015518;28;20060;-85
2022/05/20 02:54:42;;;;;;;14.05;9.07;;;14.90;99.90;;;;;;5031946;28;20040;-85
2022/05/20 02:57:07;;;;;;;21.77;9.55;;;14.90;99.90;;;;;;5015531;28;20084;-85
2022/05/20 03:05:03;;;;;;;10.18;8.60;;;14.90;99.90;;;;;;5031945;28;20034;-84
2022/05/20 03:07:29;;;;;;;12.73;8.90;;;14.90;99.90;;;;;;5031666;28;20049;-85
2022/05/20 03:09:54;;;;;;;12.00;8.93;;;14.90;99.90;;;;;;5015430;28;20064;-84
2022/05/20 03:12:20;;;;;;;11.85;8.05;;;15.00;99.90;;;;;;5015110;28;20200;-84
2022/05/20 03:14:46;;;;;;;17.02;8.82;;;15.00;99.90;;;;;;5031597;28;20826;-85
2022/05/20 03:17:12;;;;;;;20.33;9.40;;;15.10;99.90;;;;;;5015290;28;20694;-85
2022/05/20 03:19:38;;;;;;;15.27;9.30;;;15.10;99.90;;;;;;5015461;28;20072;-85
2022/05/20 03:22:05;;;;;;;11.60;8.75;;;15.20;99.90;;;;;;5030656;28;20036;-84
2022/05/20 03:24:31;;;;;;;12.43;9.27;;;15.20;99.90;;;;;;5031932;28;20099;-84
2022/05/20 03:26:57;;;;;;;13.07;8.27;;;15.20;99.90;;;;;;5015221;28;20029;-84
2022/05/20 03:29:23;;;;;;;15.07;8.10;;;15.30;99.90;;;;;;5015228;28;20029;-85
2022/05/20 03:31:50;;;;;;;14.63;8.60;;;15.40;99.90;;;;;;5015478;28;20067;-84
2022/05/20 03:34:17;;;;;;;15.02;8.73;;;15.50;99.90;;;;;;5031763;28;20025;-84
2022/05/20 03:36:49;;;;;;;11.57;8.43;;;15.50;99.90;;;;;;5014471;28;20057;-82
2022/05/20 03:39:19;;;;;;;13.13;8.68;;;15.50;99.90;;;;;;5031608;28;20124;-82
2022/05/20 03:41:45;;;;;;;15.20;9.38;;;15.60;99.90;;;;;;5014397;28;20116;-82
2022/05/20 03:44:13;;;;;;;11.88;8.45;;;15.60;99.90;;;;;;5031454;28;20123;-82
2022/05/20 03:46:44;;;;;;;12.05;9.10;;;15.70;99.90;;;;;;5031064;28;20080;-82
2022/05/20 03:49:10;;;;;;;18.42;8.15;;;15.70;99.90;;;;;;5015012;28;20036;-82
2022/05/20 03:51:37;;;;;;;18.15;7.97;;;15.70;99.90;;;;;;5014899;28;20037;-82
2022/05/20 03:54:04;;;;;;;15.30;8.02;;;15.80;99.90;;;;;;5032497;28;20033;-83
2022/05/20 03:56:30;;;;;;;11.77;8.98;;;15.70;99.90;;;;;;5014560;28;20025;-82
2022/05/20 03:58:55;;;;;;;13.27;8.02;;;15.80;99.90;;;;;;5032241;28;20520;-82
2022/05/20 04:04:06;;;;;;;10.60;7.25;;;15.90;99.90;;;;;;5031282;28;20366;-82
2022/05/20 04:06:32;;;;;;;12.27;8.85;;;15.90;99.90;;;;;;5030788;28;20481;-82
2022/05/20 04:08:58;;;;;;;11.57;8.10;;;15.90;99.90;;;;;;5013865;28;20109;-82
2022/05/20 04:11:25;;;;;;;13.85;8.60;;;15.90;99.90;;;;;;5031829;28;20052;-82
2022/05/20 04:13:51;;;;;;;14.02;8.80;;;15.90;99.90;;;;;;5031123;28;20401;-82
2022/05/20 04:16:17;;;;;;;22.55;8.98;;;15.90;99.90;;;;;;5030960;28;20032;-82
2022/05/20 04:18:43;;;;;;;13.75;8.68;;;16.00;99.90;;;;;;5014353;28;20068;-82
2022/05/20 04:21:11;;;;;;;14.90;8.68;;;16.00;99.90;;;;;;5031005;28;20418;-82
2022/05/20 04:23:37;;;;;;;11.23;7.88;;;16.00;99.90;;;;;;5030724;28;20771;-82
2022/05/20 04:26:03;;;;;;;13.65;8.85;;;16.10;99.90;;;;;;5014531;28;20075;-82
2022/05/20 04:28:28;;;;;;;14.77;8.30;;;16.20;99.90;;;;;;5030857;28;20473;-82
2022/05/20 04:31:00;;;;;;;14.68;7.72;;;16.30;99.90;;;;;;5014718;28;20052;-82
2022/05/20 04:33:27;;;;;;;13.55;7.80;;;16.40;99.90;;;;;;5015318;28;20508;-82
2022/05/20 04:35:53;;;;;;;18.13;8.13;;;16.50;99.90;;;;;;5034791;28;20083;-82
2022/05/20 04:38:19;;;;;;;12.15;8.60;;;16.60;99.90;;;;;;5017803;28;20120;-82
2022/05/20 04:46:56;;;;;;;14.50;9.23;;;16.70;99.90;;;;;;5017509;28;20036;-82
2022/05/20 04:49:00;;;;;;;12.98;7.65;;;17.10;99.90;;;;;;5034557;28;20037;-82
2022/05/20 04:51:25;;;;;;;18.30;8.43;;;17.30;99.90;;;;;;5018120;28;20126;-82
2022/05/20 04:57:31;;;;;;;11.75;7.60;;;17.70;99.90;;;;;;5034413;28;20047;-82
2022/05/20 05:00:09;;;;;;;15.75;8.27;;;17.90;99.90;;;;;;5017506;28;20030;-82
2022/05/20 05:02:53;;;;;;;12.30;8.32;;;18.10;99.90;;;;;;5017366;28;20373;-82
2022/05/20 05:05:22;;;;;;;15.20;7.72;;;18.10;99.90;;;;;;5017262;28;20065;-83
2022/05/20 05:07:50;;;;;;;12.13;7.30;;;18.20;99.90;;;;;;5033693;28;20029;-83
2022/05/20 05:10:23;;;;;;;17.30;8.77;;;18.30;99.90;;;;;;5017377;28;20448;-82
2022/05/20 05:12:49;;;;;;;15.63;8.23;;;18.40;99.90;;;;;;5017253;28;20086;-83
2022/05/20 05:15:16;;;;;;;10.98;7.43;;;18.50;99.90;;;;;;5017636;28;20026;-82
2022/05/20 05:20:27;;;;;;;13.02;7.10;;;18.70;99.90;;;;;;5035248;28;20029;-82
2022/05/20 05:22:55;;;;;;;11.98;6.78;;;18.90;99.90;;;;;;5033776;28;20045;-83
2022/05/20 05:25:23;;;;;;;15.73;6.88;;;18.90;99.90;;;;;;5034048;28;20025;-83
2022/05/20 05:27:49;;;;;;;13.27;6.30;;;18.80;99.90;;;;;;5033936;28;20041;-82
2022/05/20 05:30:56;;;;;;;11.18;7.38;;;18.90;99.90;;;;;;5033626;28;20029;-82
2022/05/20 05:33:21;;;;;;;13.88;6.35;;;19.00;99.90;;;;;;5017211;28;20504;-82
2022/05/20 05:35:47;;;;;;;9.35;6.82;;;19.10;99.90;;;;;;5017489;28;20083;-83
2022/05/20 05:38:13;;;;;;;10.38;6.78;;;19.10;99.90;;;;;;5017258;28;20057;-83
2022/05/20 05:40:39;;;;;;;18.30;7.38;;;19.10;99.90;;;;;;5017037;28;20084;-83
2022/05/20 05:43:11;;;;;;;11.18;6.82;;;18.90;99.90;;;;;;5017006;28;20053;-82
2022/05/20 05:45:38;;;;;;;10.50;6.35;;;18.90;99.90;;;;;;5016042;28;20397;-82
2022/05/20 05:48:08;;;;;;;11.82;6.53;;;18.80;99.90;;;;;;5034164;28;20025;-82
2022/05/20 05:50:37;;;;;;;9.63;6.30;;;18.80;99.90;;;;;;5017000;28;20044;-82
2022/05/20 05:53:16;;;;;;;10.60;6.70;;;18.80;99.90;;;;;;5033239;28;20033;-83
2022/05/20 05:56:10;;;;;;;13.40;7.72;;;18.90;99.90;;;;;;5033114;28;20029;-83
2022/05/20 05:58:37;;;;;;;8.82;6.22;;;19.10;99.90;;;;;;5032603;28;20033;-83
2022/05/20 06:01:03;;;;;;;9.07;6.53;;;19.40;99.90;;;;;;5016290;28;20026;-82
2022/05/20 06:03:29;;;;;;;11.75;6.28;;;19.50;99.90;;;;;;5032929;28;20037;-82
2022/05/20 06:05:55;;;;;;;7.55;6.13;;;19.50;99.90;;;;;;5016290;28;20792;-82
2022/05/20 06:08:21;;;;;;;8.70;7.22;;;19.50;99.90;;;;;;5016213;28;20107;-82
2022/05/20 06:10:47;;;;;;;21.55;7.53;;;19.50;99.90;;;;;;5032951;28;20033;-83
2022/05/20 06:13:20;;;;;;;13.38;7.70;;;19.60;99.90;;;;;;5016330;28;20041;-82
2022/05/20 06:15:45;;;;;;;10.50;7.38;;;19.60;99.90;;;;;;5032663;28;20469;-82
2022/05/20 06:18:11;;;;;;;10.85;7.30;;;19.60;99.90;;;;;;5015360;28;20112;-82
2022/05/20 06:20:37;;;;;;;15.07;8.65;;;19.50;99.90;;;;;;5031999;28;20041;-83
2022/05/20 06:23:03;;;;;;;13.30;7.55;;;19.60;99.90;;;;;;5016002;28;20044;-82
2022/05/20 06:25:30;;;;;;;15.00;8.20;;;19.60;99.90;;;;;;5032797;28;20473;-82
2022/05/20 06:28:07;;;;;;;11.15;7.03;;;19.70;99.90;;;;;;5016232;28;20389;-83
2022/05/20 06:30:33;;;;;;;14.88;7.70;;;19.80;99.90;;;;;;5016456;28;20373;-83
2022/05/20 06:33:00;;;;;;;14.15;8.43;;;19.90;99.90;;;;;;5016669;28;20040;-83
2022/05/20 06:40:55;;;;;;;12.70;8.05;;;20.30;99.90;;;;;;5032196;28;20397;-83
2022/05/20 06:43:22;;;;;;;13.57;7.32;;;20.30;99.90;;;;;;5025044;28;20041;-82
2022/05/20 06:45:51;;;;;;;14.82;8.05;;;20.30;99.90;;;;;;5015727;28;20060;-83
2022/05/20 06:48:17;;;;;;;12.73;7.82;;;20.40;99.90;;;;;;5015747;28;20033;-82
2022/05/20 06:50:43;;;;;;;11.70;8.23;;;20.30;99.90;;;;;;5016036;28;20044;-83
2022/05/20 06:53:09;;;;;;;16.65;7.82;;;20.30;99.90;;;;;;5015358;28;20095;-83
2022/05/20 06:55:35;;;;;;;13.48;7.57;;;20.50;99.90;;;;;;5015505;28;20481;-83
2022/05/20 06:58:01;;;;;;;14.57;8.75;;;20.60;99.90;;;;;;5032934;28;20032;-82
2022/05/20 07:00:27;;;;;;;12.88;7.57;;;20.80;99.90;;;;;;5015475;28;20804;-82
2022/05/20 07:02:53;;;;;;;14.43;7.57;;;20.90;99.90;;;;;;5031306;28;20022;-82
2022/05/20 07:05:19;;;;;;;13.82;7.47;;;21.00;99.90;;;;;;5014985;28;20113;-82
2022/05/20 07:07:45;;;;;;;9.82;7.35;;;21.20;99.90;;;;;;5031074;28;20123;-83
2022/05/20 07:10:12;;;;;;;13.52;7.53;;;21.30;99.90;;;;;;5015392;28;20063;-82
2022/05/20 07:12:38;;;;;;;16.23;7.97;;;21.30;99.90;;;;;;5031759;28;20082;-83
2022/05/20 07:15:57;;;;;;;10.25;7.60;;;21.50;99.90;;;;;;5031742;28;20037;-82
2022/05/20 07:18:27;;;;;;;16.52;6.97;;;21.50;99.90;;;;;;5014678;28;20029;-82
2022/05/20 07:20:53;;;;;;;14.83;7.40;;;21.50;99.90;;;;;;5031242;28;20029;-82
2022/05/20 07:23:19;;;;;;;12.98;7.43;;;21.70;99.90;;;;;;5014737;28;20042;-83
2022/05/20 07:25:44;;;;;;;15.07;8.13;;;21.70;99.90;;;;;;5031067;28;20025;-83
2022/05/20 07:28:11;;;;;;;13.38;8.18;;;21.80;99.90;;;;;;5030941;28;20041;-83
2022/05/20 07:30:37;;;;;;;10.57;7.80;;;21.60;99.90;;;;;;5031611;28;20672;-82
2022/05/20 07:33:03;;;;;;;11.80;7.57;;;21.80;99.90;;;;;;5014557;28;20043;-82
2022/05/20 07:35:53;;;;;;;11.00;7.05;;;22.10;99.90;;;;;;5015205;28;20029;-82
2022/05/20 07:38:19;;;;;;;9.88;7.07;;;22.40;99.90;;;;;;5031616;28;20113;-82
2022/05/20 07:40:45;;;;;;;13.50;7.72;;;22.70;99.90;;;;;;5015543;28;20057;-82
2022/05/20 07:43:11;;;;;;;9.25;7.53;;;22.50;99.90;;;;;;5031812;28;20215;-82
2022/05/20 07:45:37;;;;;;;9.13;6.70;;;22.80;99.90;;;;;;5015060;28;20060;-81
2022/05/20 07:48:03;;;;;;;14.35;6.45;;;23.70;99.90;;;;;;5031658;28;20070;-82
2022/05/20 07:50:45;;;;;;;9.93;6.88;;;25.00;99.90;;;;;;5014978;28;20378;-83
2022/05/20 07:53:20;;;;;;;13.57;6.70;;;26.20;99.90;;;;;;5014874;28;20140;-83
2022/05/20 07:55:55;;;;;;;12.93;6.85;;;27.10;99.90;;;;;;5015093;28;20496;-83
2022/05/20 07:58:27;;;;;;;10.63;6.00;;;27.50;99.90;;;;;;5014894;28;20152;-83
2022/05/20 08:00:58;;;;;;;10.55;5.90;;;27.50;99.90;;;;;;5031572;28;20362;-83
2022/05/20 08:06:14;;;;;;;9.98;6.13;;;28.50;99.90;;;;;;5031645;28;20128;-83
2022/05/20 08:08:40;;;;;;;11.27;5.60;;;28.80;99.90;;;;;;5032521;28;20519;-83
2022/05/20 08:11:06;;;;;;;10.38;6.00;;;29.60;99.90;;;;;;5035408;28;20033;-83
2022/05/20 08:13:50;;;;;;;9.15;5.65;;;29.90;99.90;;;;;;5035533;28;20708;-83
2022/05/20 08:16:17;;;;;;;12.65;5.38;;;30.60;99.90;;;;;;5018712;28;20029;-83
2022/05/20 08:18:43;;;;;;;11.88;5.70;;;30.90;99.90;;;;;;5034944;28;20817;-82
2022/05/20 08:21:09;;;;;;;12.43;6.05;;;31.00;99.90;;;;;;5035180;28;20167;-82
2022/05/20 08:23:34;;;;;;;12.55;5.40;;;30.90;99.90;;;;;;5018061;28;20485;-83
2022/05/20 08:26:00;;;;;;;9.07;6.28;;;31.00;99.90;;;;;;5035464;28;20029;-83
2022/05/20 08:28:26;;;;;;;7.43;5.57;;;31.00;99.90;;;;;;5034997;28;20029;-83
2022/05/20 08:30:51;;;;;;;10.10;5.82;;;30.60;99.90;;;;;;5018945;28;20033;-83
2022/05/20 08:33:17;;;;;;;14.65;6.10;;;30.30;99.90;;;;;;5034028;28;20033;-82
2022/05/20 08:35:43;;;;;;;12.52;6.15;;;30.10;99.90;;;;;;5034424;28;20030;-83
2022/05/20 08:38:09;;;;;;;7.90;6.38;;;29.50;99.90;;;;;;5034555;28;20036;-83
2022/05/20 08:40:41;;;;;;;7.72;5.75;;;29.80;99.90;;;;;;5034091;28;20018;-83
2022/05/20 08:43:06;;;;;;;14.70;7.57;;;29.90;99.90;;;;;;5036032;28;20029;-83
2022/05/20 08:45:32;;;;;;;9.32;5.47;;;30.40;99.90;;;;;;5034922;28;20848;-83
2022/05/20 08:47:58;;;;;;;16.70;5.40;;;30.60;99.90;;;;;;5034442;28;20041;-83
2022/05/20 08:50:35;;;;;;;9.88;5.32;;;30.70;99.90;;;;;;5034891;28;20029;-83
2022/05/20 08:53:01;;;;;;;14.50;5.38;;;30.60;99.60;;;;;;5017754;28;20511;-83
2022/05/20 08:55:27;;;;;;;11.90;5.85;;;30.40;99.30;;;;;;5018044;28;20057;-83
2022/05/20 08:57:59;;;;;;;12.70;5.55;;;30.40;99.80;;;;;;5034366;28;20116;-83
2022/05/20 09:00:26;;;;;;;9.80;5.90;;;30.70;99.30;;;;;;5017598;28;20029;-83
2022/05/20 09:02:52;;;;;;;11.35;5.30;;;30.30;98.80;;;;;;5017412;28;20132;-83
2022/05/20 09:05:33;;;;;;;17.85;5.00;;;30.60;98.60;;;;;;5033766;28;20034;-83
2022/05/20 09:08:33;;;;;;;13.10;5.45;;;30.10;98.00;;;;;;5033210;28;20026;-83
2022/05/20 09:11:01;;;;;;;13.98;5.40;;;30.10;98.30;;;;;;5009140;28;20128;-83
2022/05/20 09:16:21;;;;;;;11.02;5.85;;;30.60;97.70;;;;;;5034484;28;20120;-83
2022/05/20 09:19:05;;;;;;;9.45;5.15;;;31.30;97.80;;;;;;5033668;28;20032;-83
2022/05/20 09:21:38;;;;;;;7.50;4.85;;;31.20;97.20;;;;;;5035272;28;20022;-83
2022/05/20 09:24:07;;;;;;;13.38;5.25;;;31.40;96.60;;;;;;5033659;28;20038;-83
2022/05/20 09:26:36;;;;;;;11.50;5.22;;;31.60;95.80;;;;;;5033728;28;20109;-82
2022/05/20 09:29:27;;;;;;;8.93;5.07;;;31.80;95.60;;;;;;5033402;28;20033;-83
2022/05/20 09:32:02;;;;;;;10.48;5.25;;;32.20;94.50;;;;;;5017056;28;20033;-83
2022/05/20 09:34:27;;;;;;;11.20;5.85;;;31.00;93.90;;;;;;5034753;28;20037;-83
2022/05/20 09:37:00;;;;;;;13.50;5.25;;;29.90;95.90;;;;;;5034026;28;20783;-83
2022/05/20 09:39:43;;;;;;;10.02;5.35;;;29.50;97.00;;;;;;5016645;28;20540;-83
2022/05/20 09:42:15;;;;;;;7.40;4.97;;;29.70;96.80;;;;;;5017238;28;20026;-83
2022/05/20 09:44:45;;;;;;;18.83;7.40;;;30.60;97.60;;;;;;5016899;28;20048;-82
2022/05/20 09:47:26;;;;;;;10.18;5.43;;;30.80;95.80;;;;;;5021165;28;20257;-83
2022/05/20 09:50:24;;;;;;;12.25;6.00;;;31.20;95.80;;;;;;5021246;28;20091;-83
2022/05/20 09:53:12;;;;;;;18.05;5.30;;;31.10;96.00;;;;;;4999037;28;20029;-83
2022/05/20 09:56:12;;;;;;;11.52;5.63;;;31.30;94.70;;;;;;5033615;28;20068;-82
2022/05/20 09:58:39;;;;;;;8.75;5.07;;;31.00;93.50;;;;;;5033247;28;20121;-83
2022/05/20 10:01:15;;;;;;;8.90;4.28;;;30.30;94.20;;;;;;5033299;28;20034;-83
2022/05/20 10:03:50;;;;;;;10.65;4.90;;;29.50;92.50;;;;;;5033260;28;20045;-83
2022/05/20 10:06:36;;;;;;;12.82;4.88;;;29.80;92.70;;;;;;5034619;28;20045;-83
2022/05/20 10:09:11;;;;;;;13.65;5.35;;;29.60;92.60;;;;;;5032903;28;20061;-83
2022/05/20 10:11:56;;;;;;;8.90;5.15;;;29.90;93.90;;;;;;5032526;28;20041;-82
2022/05/20 10:14:27;;;;;;;11.32;5.20;;;29.80;93.70;;;;;;5034260;28;20654;-83
2022/05/20 10:17:02;;;;;;;8.60;4.68;;;29.50;92.60;;;;;;5032645;28;20037;-83
2022/05/20 10:19:55;;;;;;;12.32;4.82;;;28.90;93.00;;;;;;5032410;28;20588;-83
2022/05/20 10:22:40;;;;;;;12.35;4.55;;;28.60;94.20;;;;;;5029329;28;20770;-84
2022/05/20 10:25:26;;;;;;;15.30;4.35;;;28.50;91.60;;;;;;5034216;28;20794;-83
2022/05/20 10:28:13;;;;;;;10.75;4.10;;;28.60;92.40;;;;;;5034275;28;20389;-83
2022/05/20 10:33:42;;;;;;;14.80;4.75;;;28.60;90.40;;;;;;5032946;28;20029;-83
2022/05/20 10:36:27;;;;;;;11.18;4.35;;;28.90;87.00;;;;;;5032704;28;20049;-82
2022/05/20 10:39:22;;;;;;;11.40;4.68;;;28.80;90.00;;;;;;5032294;28;20083;-82
2022/05/20 10:41:53;;;;;;;11.60;3.97;;;29.00;88.90;;;;;;5031903;28;20021;-83
2022/05/20 10:50:25;;;;;;;9.15;4.03;;;29.00;85.70;;;;;;5032241;28;20091;-84
2022/05/20 10:53:44;;;;;;;10.88;4.05;;;28.90;81.30;;;;;;5031904;28;20120;-83
2022/05/20 10:56:46;;;;;;;12.57;4.32;;;28.70;83.50;;;;;;5015225;28;20087;-83
2022/05/20 10:59:41;;;;;;;16.33;4.40;;;28.70;84.10;;;;;;5031532;28;20036;-83
2022/05/20 11:02:29;;;;;;;11.93;4.45;;;28.70;86.00;;;;;;5032695;28;20120;-83
2022/05/20 11:05:17;;;;;;;11.80;4.53;;;29.10;87.00;;;;;;5015231;28;20033;-83
2022/05/20 11:07:51;;;;;;;19.63;5.72;;;29.30;86.60;;;;;;5003856;28;20056;-83
2022/05/20 11:10:35;;;;;;;13.82;4.90;;;29.40;85.70;;;;;;5032168;28;20033;-82
2022/05/20 11:13:06;;;;;;;6.60;3.80;;;29.30;86.50;;;;;;5031969;28;20045;-83
2022/05/20 11:15:44;;;;;;;12.20;4.20;;;29.50;88.40;;;;;;5031990;28;20392;-83
2022/05/20 11:18:20;;;;;;;8.63;4.60;;;29.80;86.80;;;;;;5015345;28;20041;-85
2022/05/20 11:21:22;;;;;;;8.10;4.10;;;30.10;86.30;;;;;;5032155;28;20041;-83
2022/05/20 11:23:55;;;;;;;18.67;4.63;;;29.30;86.20;;;;;;5031719;28;20106;-83
2022/05/20 11:26:43;;;;;;;12.13;4.43;;;29.10;85.00;;;;;;5015676;28;20152;-83
2022/05/20 11:29:18;;;;;;;11.73;4.30;;;29.20;87.80;;;;;;5015197;28;20033;-83
2022/05/20 11:31:53;;;;;;;12.73;4.70;;;29.80;88.30;;;;;;5031800;28;20087;-83
2022/05/20 11:34:41;;;;;;;13.13;5.57;;;29.90;86.20;;;;;;5015150;28;20037;-84
2022/05/20 11:37:15;;;;;;;11.13;4.53;;;30.60;84.70;;;;;;5015278;28;20030;-83
2022/05/20 11:40:24;;;;;;;17.73;5.20;;;31.10;85.60;;;;;;5031797;28;20044;-83
2022/05/20 11:42:56;;;;;;;16.95;5.07;;;31.30;83.90;;;;;;5014072;28;20034;-83
2022/05/20 11:45:51;;;;;;;15.27;4.50;;;31.10;82.80;;;;;;5014725;28;20048;-83
2022/05/20 11:48:42;;;;;;;10.00;4.35;;;31.30;82.50;;;;;;5031143;28;20124;-83
2022/05/20 11:51:43;;;;;;;14.18;4.18;;;31.40;84.80;;;;;;5031555;28;20040;-84
2022/05/20 11:54:26;;;;;;;11.27;4.25;;;31.30;81.40;;;;;;5030959;28;20370;-83
2022/05/20 11:57:00;;;;;;;18.73;4.68;;;31.20;80.20;;;;;;5031162;28;20037;-83
2022/05/20 11:59:38;;;;;;;10.40;4.28;;;31.20;82.30;;;;;;5032257;28;20057;-83
2022/05/20 12:02:09;;;;;;;9.25;4.30;;;30.70;81.10;;;;;;5032282;28;20083;-83
2022/05/20 12:04:38;;;;;;;16.05;5.25;;;30.70;82.20;;;;;;5015096;28;20104;-83
2022/05/20 12:07:07;;;;;;;16.23;4.97;;;30.40;83.00;;;;;;5031414;28;20033;-83
2022/05/20 12:09:48;;;;;;;8.95;4.43;;;30.30;82.40;;;;;;5030798;28;20128;-83
2022/05/20 12:12:24;;;;;;;14.18;5.20;;;30.40;84.40;;;;;;5014713;28;20044;-83
2022/05/20 12:14:59;;;;;;;14.45;4.88;;;30.90;84.00;;;;;;5015155;28;20034;-83
2022/05/20 12:17:40;;;;;;;11.32;4.80;;;31.40;85.80;;;;;;5031190;28;20485;-84
2022/05/20 12:26:12;;;;;;;;;;;31.40;83.20;;;;;;5032352;28;20129;-82
2022/05/20 12:28:39;;;;;;;18.85;5.15;;;31.50;84.00;;;;;;5064352;28;20005;-83
2022/05/20 12:31:20;;;;;;;13.02;4.70;;;31.50;81.80;;;;;;5031372;28;20029;-84
2022/05/20 12:34:05;;;;;;;10.50;5.15;;;31.40;83.30;;;;;;5014487;28;20035;-83
2022/05/20 12:36:36;;;;;;;16.52;7.97;;;31.80;82.00;;;;;;5014238;28;20036;-84
2022/05/20 12:39:40;;;;;;;14.18;5.30;;;31.70;81.60;;;;;;5013775;28;20111;-83
2022/05/20 12:42:21;;;;;;;17.73;5.22;;;31.90;81.70;;;;;;5013909;28;20088;-83
2022/05/20 12:44:46;;;;;;;;;;;32.20;82.60;;;;;;5030626;28;20033;-84
2022/05/20 12:47:32;;;;;;;11.15;4.43;;;32.00;81.10;;;;;;5047282;28;20719;-83
2022/05/20 12:50:06;;;;;;;14.73;4.90;;;32.00;80.40;;;;;;5030174;28;20480;-83
2022/05/20 12:52:44;;;;;;;12.40;4.93;;;31.70;82.60;;;;;;5014181;28;20041;-83
2022/05/20 12:55:19;;;;;;;13.18;4.90;;;31.60;83.40;;;;;;5032927;28;20029;-83
2022/05/20 12:57:55;;;;;;;14.00;5.53;;;31.60;82.80;;;;;;5034367;28;20036;-83
2022/05/20 13:00:29;;;;;;;13.80;5.68;;;32.20;82.90;;;;;;5035816;28;20686;-83
2022/05/20 13:03:00;;;;;;;12.98;4.80;;;32.30;81.20;;;;;;5034291;28;20126;-84
2022/05/20 13:05:36;;;;;;;14.07;5.03;;;32.40;78.40;;;;;;5034335;28;20021;-83
2022/05/20 13:08:07;;;;;;;12.50;5.03;;;32.40;79.90;;;;;;5017346;28;20492;-83
2022/05/20 13:10:38;;;;;;;11.30;4.82;;;32.50;79.00;;;;;;5034073;28;20033;-83
2022/05/20 13:13:10;;;;;;;13.95;4.50;;;32.70;78.50;;;;;;5034167;28;20021;-84
2022/05/20 13:15:46;;;;;;;9.00;4.40;;;32.90;80.30;;;;;;5017776;28;20033;-84
2022/05/20 13:18:25;;;;;;;22.73;5.00;;;32.80;79.30;;;;;;5017640;28;20561;-84
2022/05/20 13:20:54;;;;;;;10.95;4.40;;;33.30;78.90;;;;;;5034062;28;20037;-83
2022/05/20 13:23:25;;;;;;;10.40;4.50;;;33.60;80.70;;;;;;5016522;28;20048;-83
2022/05/20 13:25:50;;;;;;;;;;;33.90;79.40;;;;;;5017884;28;20683;-83
2022/05/20 13:28:22;;;;;;;9.80;4.97;;;34.30;78.20;;;;;;5049992;28;19913;-83
2022/05/20 13:30:49;;;;;;;13.68;4.95;;;34.30;76.50;;;;;;5017411;28;20029;-83
2022/05/20 13:33:15;;;;;;;14.05;4.88;;;34.20;76.20;;;;;;5016682;28;20040;-83
2022/05/20 13:36:01;;;;;;;12.40;4.97;;;33.10;75.40;;;;;;5017080;28;20039;-84
2022/05/20 13:38:30;;;;;;;14.65;4.88;;;32.50;79.30;;;;;;5016636;28;20021;-83
2022/05/20 13:40:57;;;;;;;10.88;5.45;;;31.80;79.90;;;;;;5033519;28;20038;-83
2022/05/20 13:43:30;;;;;;;16.23;5.35;;;30.80;80.40;;;;;;5017199;28;20182;-83
2022/05/20 13:52:01;;;;;;;14.20;5.63;;;28.10;91.60;;;;;;5034277;28;20025;-83
2022/05/20 13:54:38;;;;;;;13.73;5.88;;;27.00;92.00;;;;;;5016472;28;20037;-83
2022/05/20 13:57:17;;;;;;;13.18;6.43;;;26.20;94.80;;;;;;5034221;28;20756;-82